createdAt,value
2024-01-11T00:02:21.491Z,7.07
2024-01-11T00:04:50.107Z,6.90
2024-01-11T00:07:20.127Z,7.60
2024-01-11T00:09:48.917Z,6.78
2024-01-11T00:12:17.464Z,6.57
2024-01-11T00:14:45.977Z,7.03
2024-01-11T00:17:14.754Z,7.03
2024-01-11T00:19:43.404Z,6.65
2024-01-11T00:22:11.946Z,6.82
2024-01-11T00:24:42.446Z,7.25
2024-01-11T00:27:11.119Z,6.57
2024-01-11T00:29:39.693Z,7.05
2024-01-11T00:32:08.344Z,7.13
2024-01-11T00:34:37.906Z,6.78
2024-01-11T00:37:06.595Z,6.80
2024-01-11T00:39:35.114Z,6.72
2024-01-11T00:42:05.104Z,6.63
2024-01-11T00:44:34.073Z,6.45
2024-01-11T00:47:03.308Z,6.68
2024-01-11T00:49:32.096Z,5.93
2024-01-11T00:52:00.728Z,6.40
2024-01-11T00:54:29.170Z,6.47
2024-01-11T00:56:57.840Z,6.18
2024-01-11T00:59:27.776Z,5.97
2024-01-11T01:01:56.476Z,5.95
2024-01-11T01:04:25.096Z,6.25
2024-01-11T01:06:53.795Z,5.97
2024-01-11T01:09:22.483Z,6.15
2024-01-11T01:11:51.378Z,6.03
2024-01-11T01:14:19.848Z,6.32
2024-01-11T01:16:49.978Z,6.85
2024-01-11T01:19:18.603Z,6.15
2024-01-11T01:21:47.382Z,5.75
2024-01-11T01:24:16.045Z,6.35
2024-01-11T01:26:44.576Z,6.28
2024-01-11T01:29:13.564Z,6.18
2024-01-11T01:31:42.061Z,6.18
2024-01-11T01:34:12.128Z,6.00
2024-01-11T01:36:40.698Z,6.07
2024-01-11T01:39:09.575Z,6.10
2024-01-11T01:41:38.275Z,6.15
2024-01-11T01:44:07.251Z,6.15
2024-01-11T01:46:36.460Z,6.18
2024-01-11T01:49:06.741Z,6.60
2024-01-11T01:51:36.825Z,5.57
2024-01-11T01:54:05.689Z,6.40
2024-01-11T01:56:34.489Z,6.50
2024-01-11T01:59:03.772Z,6.40
2024-01-11T02:01:33.123Z,5.80
2024-01-11T02:04:01.911Z,5.80
2024-01-11T02:06:33.358Z,5.85
2024-01-11T02:09:04.176Z,6.25
2024-01-11T02:11:33.188Z,5.70
2024-01-11T02:14:02.031Z,5.65
2024-01-11T02:16:30.739Z,6.10
2024-01-11T02:18:59.664Z,5.75
2024-01-11T02:21:30.214Z,5.35
2024-01-11T02:24:06.612Z,5.85
2024-01-11T02:26:35.907Z,5.35
2024-01-11T02:29:04.677Z,5.53
2024-01-11T02:31:33.418Z,5.75
2024-01-11T02:34:02.233Z,5.43
2024-01-11T02:36:30.826Z,5.65
2024-01-11T02:38:59.503Z,5.55
2024-01-11T02:41:30.013Z,6.05
2024-01-11T02:43:58.728Z,5.35
2024-01-11T02:46:27.235Z,6.07
2024-01-11T02:48:55.917Z,5.57
2024-01-11T02:51:24.714Z,5.18
2024-01-11T02:53:53.337Z,5.80
2024-01-11T02:56:21.916Z,5.60
2024-01-11T02:58:51.776Z,5.32
2024-01-11T03:01:20.450Z,5.45
2024-01-11T03:03:51.779Z,5.22
2024-01-11T03:06:23.078Z,5.22
2024-01-11T03:08:51.961Z,5.25
2024-01-11T03:11:20.512Z,5.60
2024-01-11T03:13:49.278Z,5.43
2024-01-11T03:16:19.317Z,5.60
2024-01-11T03:18:48.065Z,4.75
2024-01-11T03:21:16.638Z,5.28
2024-01-11T03:23:45.356Z,5.70
2024-01-11T03:26:17.281Z,5.13
2024-01-11T03:28:46.039Z,4.85
2024-01-11T03:31:14.728Z,5.45
2024-01-11T03:33:44.744Z,5.45
2024-01-11T03:36:14.265Z,5.45
2024-01-11T03:38:42.832Z,5.47
2024-01-11T03:41:11.951Z,5.03
2024-01-11T03:43:40.799Z,4.90
2024-01-11T03:46:09.306Z,4.80
2024-01-11T03:48:38.111Z,5.15
2024-01-11T03:51:08.382Z,5.25
2024-01-11T03:53:39.097Z,5.03
2024-01-11T03:56:08.095Z,5.47
2024-01-11T03:58:40.470Z,5.80
2024-01-11T04:01:11.344Z,4.75
2024-01-11T04:03:40.299Z,5.32
2024-01-11T04:06:10.434Z,4.47
2024-01-11T04:08:39.168Z,5.10
2024-01-11T04:11:07.705Z,5.13
2024-01-11T04:13:36.554Z,5.40
2024-01-11T04:16:07.010Z,5.03
2024-01-11T04:18:35.669Z,4.75
2024-01-11T04:21:04.328Z,4.80
2024-01-11T04:23:34.367Z,5.40
2024-01-11T04:26:02.903Z,5.47
2024-01-11T04:28:31.556Z,5.22
2024-01-11T04:31:00.337Z,4.70
2024-01-11T04:33:28.907Z,4.93
2024-01-11T04:35:57.481Z,4.82
2024-01-11T04:38:26.182Z,5.20
2024-01-11T04:40:56.025Z,4.85
2024-01-11T04:43:24.480Z,5.53
2024-01-11T04:45:53.205Z,5.15
2024-01-11T04:48:21.664Z,4.50
2024-01-11T04:50:50.247Z,5.40
2024-01-11T04:53:18.872Z,4.55
2024-01-11T04:55:47.606Z,4.40
2024-01-11T04:58:17.516Z,5.07
2024-01-11T05:00:46.286Z,4.55
2024-01-11T05:03:14.862Z,5.30
2024-01-11T05:05:43.505Z,5.03
2024-01-11T05:08:12.005Z,4.53
2024-01-11T05:10:40.861Z,4.85
2024-01-11T05:13:09.309Z,4.75
2024-01-11T05:15:39.174Z,4.60
2024-01-11T05:18:07.816Z,4.80
2024-01-11T05:20:36.337Z,4.65
2024-01-11T05:23:05.080Z,5.00
2024-01-11T05:25:34.702Z,4.97
2024-01-11T05:28:03.309Z,4.82
2024-01-11T05:30:32.344Z,4.35
2024-01-11T05:33:02.345Z,4.38
2024-01-11T05:35:31.095Z,4.60
2024-01-11T05:37:59.519Z,4.45
2024-01-11T05:40:28.429Z,5.00
2024-01-11T05:42:56.909Z,4.63
2024-01-11T05:45:31.909Z,4.70
2024-01-11T05:48:10.490Z,5.03
2024-01-11T05:50:39.058Z,4.60
2024-01-11T05:53:07.634Z,4.95
2024-01-11T05:55:36.230Z,4.82
2024-01-11T05:58:05.228Z,5.07
2024-01-11T06:00:33.828Z,4.55
2024-01-11T06:03:02.712Z,4.50
2024-01-11T06:05:32.799Z,5.10
2024-01-11T06:08:01.365Z,4.57
2024-01-11T06:10:29.862Z,4.47
2024-01-11T06:12:58.582Z,4.25
2024-01-11T06:15:27.109Z,4.15
2024-01-11T06:17:55.893Z,4.60
2024-01-11T06:20:24.633Z,4.20
2024-01-11T06:22:54.492Z,4.50
2024-01-11T06:25:23.243Z,4.78
2024-01-11T06:27:51.708Z,4.50
2024-01-11T06:30:20.149Z,4.30
2024-01-11T06:32:48.729Z,5.03
2024-01-11T06:35:17.558Z,4.45
2024-01-11T06:37:46.158Z,4.53
2024-01-11T06:40:16.092Z,4.80
2024-01-11T06:42:44.506Z,5.35
2024-01-11T06:45:12.998Z,5.15
2024-01-11T06:47:41.615Z,4.85
2024-01-11T06:50:10.746Z,5.40
2024-01-11T06:52:39.237Z,4.78
2024-01-11T06:55:08.344Z,4.95
2024-01-11T06:57:38.497Z,5.53
2024-01-11T07:00:08.450Z,4.95
2024-01-11T07:02:37.088Z,5.18
2024-01-11T07:05:05.878Z,5.20
2024-01-11T07:07:34.916Z,11.85
2024-01-11T07:10:04.526Z,11.38
2024-01-11T07:12:33.083Z,14.68
2024-01-11T07:15:05.006Z,13.80
2024-01-11T07:17:33.732Z,21.75
2024-01-11T07:20:05.283Z,21.70
2024-01-11T07:22:33.730Z,20.08
2024-01-11T07:25:02.130Z,16.88
2024-01-11T07:27:30.823Z,19.27
2024-01-11T07:29:59.614Z,16.70
2024-01-11T07:32:29.817Z,13.38
2024-01-11T07:34:58.691Z,13.10
2024-01-11T07:37:29.012Z,12.95
2024-01-11T07:39:57.415Z,12.18
2024-01-11T07:42:26.275Z,11.48
2024-01-11T07:44:54.687Z,11.82
2024-01-11T07:47:23.191Z,10.82
2024-01-11T07:49:53.010Z,10.57
2024-01-11T07:52:22.347Z,10.95
2024-01-11T07:54:50.897Z,11.25
2024-01-11T07:57:19.552Z,10.65
2024-01-11T07:59:48.319Z,10.65
2024-01-11T08:02:17.379Z,10.57
2024-01-11T08:04:47.193Z,9.55
2024-01-11T08:07:18.166Z,9.82
2024-01-11T08:09:46.876Z,9.43
2024-01-11T08:12:15.635Z,10.07
2024-01-11T08:14:44.545Z,8.77
2024-01-11T08:17:13.541Z,9.45
2024-01-11T08:19:43.433Z,9.05
2024-01-11T08:22:12.716Z,8.73
2024-01-11T08:24:42.532Z,9.63
2024-01-11T08:27:10.966Z,9.07
2024-01-11T08:29:39.564Z,8.60
2024-01-11T08:32:19.399Z,8.25
2024-01-11T08:34:57.088Z,9.35
2024-01-11T08:37:25.568Z,8.73
2024-01-11T08:39:55.573Z,9.27
2024-01-11T08:42:23.968Z,8.40
2024-01-11T08:44:53.353Z,8.75
2024-01-11T08:47:21.797Z,8.35
2024-01-11T08:49:51.177Z,8.43
2024-01-11T08:52:19.666Z,8.88
2024-01-11T08:54:48.335Z,8.65
2024-01-11T08:57:18.194Z,9.15
2024-01-11T08:59:47.051Z,8.40
2024-01-11T09:02:18.993Z,8.45
2024-01-11T09:04:49.572Z,8.10
2024-01-11T09:07:18.104Z,8.13
2024-01-11T09:09:53.604Z,8.63
2024-01-11T09:12:26.821Z,7.78
2024-01-11T09:14:55.845Z,8.02
2024-01-11T09:17:24.858Z,8.38
2024-01-11T09:19:53.870Z,7.90
2024-01-11T09:22:22.638Z,7.95
2024-01-11T09:24:51.069Z,7.82
2024-01-11T09:27:19.688Z,8.00
2024-01-11T09:29:52.273Z,8.30
2024-01-11T09:32:22.883Z,7.43
2024-01-11T09:34:51.886Z,7.10
2024-01-11T09:37:20.763Z,8.25
2024-01-11T09:39:49.207Z,8.60
2024-01-11T09:42:18.115Z,7.40
2024-01-11T09:44:46.869Z,7.50
2024-01-11T09:47:19.699Z,8.02
2024-01-11T09:49:51.877Z,8.40
2024-01-11T09:52:22.977Z,7.88
2024-01-11T09:54:51.543Z,7.10
2024-01-11T09:57:21.539Z,7.60
2024-01-11T09:59:52.489Z,8.07
2024-01-11T10:02:22.647Z,8.13
2024-01-11T10:04:53.260Z,7.60
2024-01-11T10:07:22.554Z,7.35
2024-01-11T10:09:51.534Z,7.60
2024-01-11T10:12:21.524Z,7.43
2024-01-11T10:14:50.210Z,7.50
2024-01-11T10:17:21.705Z,7.60
2024-01-11T10:19:55.750Z,7.25
2024-01-11T10:22:27.098Z,7.25
2024-01-11T10:25:10.420Z,7.28
2024-01-11T10:27:38.840Z,7.72
2024-01-11T10:30:09.151Z,7.10
2024-01-11T10:32:37.748Z,7.07
2024-01-11T10:35:08.174Z,7.75
2024-01-11T10:37:36.757Z,7.63
2024-01-11T10:40:10.437Z,7.47
2024-01-11T10:42:41.798Z,7.55
2024-01-11T10:45:13.261Z,7.07
2024-01-11T10:47:41.890Z,6.95
2024-01-11T10:50:12.462Z,7.10
2024-01-11T10:52:45.701Z,6.85
2024-01-11T10:55:14.330Z,6.70
2024-01-11T10:57:44.139Z,6.93
2024-01-11T11:00:13.757Z,6.60
2024-01-11T11:02:42.566Z,7.45
2024-01-11T11:05:14.810Z,6.68
2024-01-11T11:07:43.551Z,6.72
2024-01-11T11:10:13.373Z,7.00
2024-01-11T11:12:43.395Z,7.47
2024-01-11T11:15:12.848Z,7.20
2024-01-11T11:17:41.407Z,6.78
2024-01-11T11:20:10.363Z,7.57
2024-01-11T11:22:40.174Z,6.63
2024-01-11T11:25:10.859Z,6.97
2024-01-11T11:27:39.368Z,6.90
2024-01-11T11:30:09.142Z,6.80
2024-01-11T11:32:38.549Z,6.63
2024-01-11T11:35:09.532Z,6.97
2024-01-11T11:37:40.777Z,6.90
2024-01-11T11:40:11.668Z,6.88
2024-01-11T11:42:40.211Z,7.13
2024-01-11T11:45:11.602Z,7.40
2024-01-11T11:47:40.498Z,6.57
2024-01-11T11:50:10.828Z,6.68
2024-01-11T11:52:41.235Z,6.97
2024-01-11T11:55:10.435Z,6.50
2024-01-11T11:57:38.986Z,7.57
2024-01-11T12:00:09.539Z,6.50
2024-01-11T12:02:42.016Z,6.43
2024-01-11T12:05:10.765Z,6.55
2024-01-11T12:07:40.946Z,6.32
2024-01-11T12:10:10.342Z,6.97
2024-01-11T12:12:39.537Z,6.57
2024-01-11T12:15:08.814Z,6.55
2024-01-11T12:17:37.477Z,6.22
2024-01-11T12:20:06.415Z,6.35
2024-01-11T12:22:34.957Z,6.65
2024-01-11T12:25:05.678Z,6.40
2024-01-11T12:27:34.118Z,6.72
2024-01-11T12:30:03.923Z,6.28
2024-01-11T12:32:32.614Z,6.28
2024-01-11T12:35:01.499Z,5.80
2024-01-11T12:37:32.924Z,6.07
2024-01-11T12:40:01.595Z,6.50
2024-01-11T12:42:31.841Z,6.40
2024-01-11T12:45:00.665Z,6.50
2024-01-11T12:47:29.360Z,7.07
2024-01-11T12:49:57.953Z,6.07
2024-01-11T12:52:28.545Z,6.43
2024-01-11T12:54:58.006Z,5.93
2024-01-11T12:57:27.054Z,6.68
2024-01-11T12:59:56.955Z,6.65
2024-01-11T13:02:26.012Z,6.70
2024-01-11T13:04:54.538Z,6.53
2024-01-11T13:07:24.285Z,6.60
2024-01-11T13:09:52.805Z,6.15
2024-01-11T13:12:22.770Z,6.43
2024-01-11T13:14:52.107Z,6.45
2024-01-11T13:17:21.948Z,6.90
2024-01-11T13:19:50.876Z,6.30
2024-01-11T13:22:19.306Z,6.60
2024-01-11T13:24:47.749Z,6.43
2024-01-11T13:27:16.216Z,6.50
2024-01-11T13:29:44.871Z,6.85
2024-01-11T13:32:13.481Z,7.00
2024-01-11T13:34:43.850Z,6.97
2024-01-11T13:37:12.361Z,6.50
2024-01-11T13:39:41.185Z,6.57
2024-01-11T13:42:10.791Z,6.75
2024-01-11T13:44:39.498Z,6.43
2024-01-11T13:47:08.342Z,6.78
2024-01-11T13:49:56.656Z,7.18
2024-01-11T13:52:25.176Z,7.10
2024-01-11T13:54:53.557Z,6.78
2024-01-11T13:57:22.043Z,6.65
2024-01-11T13:59:52.012Z,6.28
2024-01-11T14:02:20.499Z,6.47
2024-01-11T14:04:49.764Z,6.40
2024-01-11T14:07:19.609Z,6.78
2024-01-11T14:09:48.332Z,7.00
2024-01-11T14:12:17.017Z,7.03
2024-01-11T14:14:45.869Z,7.82
2024-01-11T14:17:14.441Z,6.28
2024-01-11T14:19:43.123Z,7.15
2024-01-11T14:22:11.969Z,7.30
2024-01-11T14:24:41.774Z,6.22
2024-01-11T14:27:10.837Z,6.15
2024-01-11T14:29:40.823Z,6.55
2024-01-11T14:32:10.170Z,7.05
2024-01-11T14:34:40.940Z,6.78
2024-01-11T14:37:09.503Z,6.30
2024-01-11T14:39:37.968Z,6.25
2024-01-11T14:42:12.692Z,6.55
2024-01-11T14:44:41.164Z,5.90
2024-01-11T14:47:09.792Z,6.43
2024-01-11T14:49:38.287Z,6.57
2024-01-11T14:52:07.121Z,6.70
2024-01-11T14:54:35.551Z,6.72
2024-01-11T14:57:04.160Z,7.10
2024-01-11T14:59:34.312Z,6.75
2024-01-11T15:02:03.742Z,6.80
2024-01-11T15:04:32.464Z,5.95
2024-01-11T15:07:01.220Z,7.07
2024-01-11T15:09:29.876Z,6.03
2024-01-11T15:11:58.388Z,6.22
2024-01-11T15:14:27.231Z,6.10
2024-01-11T15:16:57.065Z,6.50
2024-01-11T15:19:25.658Z,6.20
2024-01-11T15:21:54.403Z,6.93
2024-01-11T15:24:22.944Z,6.07
2024-01-11T15:26:51.540Z,7.18
2024-01-11T15:29:20.259Z,6.25
2024-01-11T15:31:50.474Z,6.20
2024-01-11T15:34:20.964Z,6.32
2024-01-11T15:36:49.543Z,6.43
2024-01-11T15:39:26.346Z,5.80
2024-01-11T15:41:58.571Z,6.50
2024-01-11T15:44:29.338Z,5.80
2024-01-11T15:46:58.580Z,5.93
2024-01-11T15:49:28.598Z,5.70
2024-01-11T15:51:57.764Z,6.25
2024-01-11T15:54:27.389Z,6.47
2024-01-11T15:56:56.355Z,6.28
2024-01-11T15:59:27.372Z,6.10
2024-01-11T16:02:03.688Z,5.43
2024-01-11T16:04:37.257Z,5.95
2024-01-11T16:07:06.189Z,5.88
2024-01-11T16:09:34.897Z,6.05
2024-01-11T16:12:05.729Z,6.18
2024-01-11T16:14:35.612Z,6.45
2024-01-11T16:17:04.398Z,6.60
2024-01-11T16:19:34.854Z,6.88
2024-01-11T16:22:05.662Z,6.45
2024-01-11T16:24:34.080Z,6.80
2024-01-11T16:27:03.172Z,6.65
2024-01-11T16:29:31.757Z,6.55
2024-01-11T16:32:00.691Z,6.60
2024-01-11T16:34:29.529Z,6.97
2024-01-11T16:36:58.959Z,6.50
2024-01-11T16:39:29.228Z,8.18
2024-01-11T16:41:57.762Z,7.60
2024-01-11T16:44:26.273Z,9.50
2024-01-11T16:46:55.671Z,17.13
2024-01-11T16:49:24.520Z,19.42
2024-01-11T16:51:53.164Z,21.30
2024-01-11T16:54:22.772Z,21.63
2024-01-11T16:56:52.802Z,25.58
2024-01-11T16:59:22.214Z,39.40
2024-01-11T17:01:50.928Z,50.13
2024-01-11T17:04:19.434Z,59.67
2024-01-11T17:06:48.153Z,59.88
2024-01-11T17:09:16.799Z,61.58
2024-01-11T17:11:45.551Z,60.63
2024-01-11T17:14:15.576Z,56.38
2024-01-11T17:16:44.149Z,54.70
2024-01-11T17:19:13.420Z,50.53
2024-01-11T17:21:41.989Z,49.28
2024-01-11T17:24:10.449Z,50.80
2024-01-11T17:26:39.297Z,45.60
2024-01-11T17:29:07.786Z,47.88
2024-01-11T17:31:40.550Z,42.28
2024-01-11T17:34:09.271Z,43.17
2024-01-11T17:36:37.884Z,43.10
2024-01-11T17:39:08.175Z,41.70
2024-01-11T17:41:41.277Z,41.28
2024-01-11T17:44:10.134Z,39.42
2024-01-11T17:46:41.139Z,40.33
2024-01-11T17:49:10.324Z,38.20
2024-01-11T17:51:39.060Z,38.75
2024-01-11T17:54:07.686Z,38.80
2024-01-11T17:56:36.145Z,37.33
2024-01-11T17:59:06.543Z,37.85
2024-01-11T18:01:35.370Z,38.08
2024-01-11T18:04:05.736Z,37.53
2024-01-11T18:06:34.490Z,37.75
2024-01-11T18:09:04.789Z,34.88
2024-01-11T18:11:34.425Z,34.13
2024-01-11T18:14:03.321Z,34.83
2024-01-11T18:16:32.027Z,33.92
2024-01-11T18:19:01.459Z,35.83
2024-01-11T18:21:31.716Z,35.13
2024-01-11T18:24:00.343Z,33.80
2024-01-11T18:26:29.587Z,33.83
2024-01-11T18:28:58.405Z,33.90
2024-01-11T18:31:26.917Z,32.78
2024-01-11T18:33:56.277Z,31.85
2024-01-11T18:36:25.518Z,31.88
2024-01-11T18:38:58.386Z,32.08
2024-01-11T18:41:27.075Z,28.73
2024-01-11T18:43:56.159Z,29.67
2024-01-11T18:46:24.651Z,30.92
2024-01-11T18:48:53.462Z,30.23
2024-01-11T18:51:22.267Z,29.80
2024-01-11T18:53:50.976Z,29.52
2024-01-11T18:56:20.908Z,29.35
2024-01-11T18:58:49.460Z,30.42
2024-01-11T19:01:18.030Z,28.92
2024-01-11T19:03:46.538Z,29.65
2024-01-11T19:06:15.189Z,29.15
2024-01-11T19:08:43.708Z,29.20
2024-01-11T19:11:12.656Z,27.55
2024-01-11T19:13:43.220Z,27.65
2024-01-11T19:16:12.155Z,27.67
2024-01-11T19:18:40.653Z,28.52
2024-01-11T19:21:09.310Z,28.58
2024-01-11T19:23:40.480Z,27.30
2024-01-11T19:26:09.497Z,25.80
2024-01-11T19:28:38.055Z,28.30
2024-01-11T19:31:08.199Z,25.83
2024-01-11T19:33:37.849Z,26.35
2024-01-11T19:36:06.730Z,26.92
2024-01-11T19:38:40.190Z,25.67
2024-01-11T19:41:08.862Z,24.30
2024-01-11T19:43:39.627Z,26.17
2024-01-11T19:46:09.418Z,25.08
2024-01-11T19:48:37.973Z,24.77
2024-01-11T19:51:12.007Z,25.80
2024-01-11T19:53:42.069Z,24.35
2024-01-11T19:56:17.865Z,23.33
2024-01-11T19:58:46.629Z,24.13
2024-01-11T20:01:17.135Z,23.80
2024-01-11T20:03:45.787Z,24.02
2024-01-11T20:06:14.773Z,23.80
2024-01-11T20:08:43.970Z,22.90
2024-01-11T20:11:13.731Z,23.08
2024-01-11T20:13:43.064Z,21.85
2024-01-11T20:16:11.502Z,21.98
2024-01-11T20:18:42.864Z,23.33
2024-01-11T20:21:13.840Z,22.42
2024-01-11T20:23:44.744Z,22.75
2024-01-11T20:26:14.222Z,22.45
2024-01-11T20:28:42.872Z,21.88
2024-01-11T20:31:11.457Z,22.48
2024-01-11T20:33:41.688Z,20.95
2024-01-11T20:36:10.769Z,22.75
2024-01-11T20:38:39.321Z,22.77
2024-01-11T20:41:07.913Z,20.65
2024-01-11T20:43:37.328Z,21.38
2024-01-11T20:46:05.917Z,21.65
2024-01-11T20:48:35.479Z,21.55
2024-01-11T20:51:05.570Z,21.50
2024-01-11T20:53:34.387Z,21.30
2024-01-11T20:56:02.870Z,21.58
2024-01-11T20:58:31.429Z,20.98
2024-01-11T21:00:59.924Z,20.55
2024-01-11T21:03:28.533Z,21.05
2024-01-11T21:05:59.014Z,19.60
2024-01-11T21:08:29.006Z,20.65
2024-01-11T21:10:57.904Z,20.73
2024-01-11T21:13:26.368Z,19.92
2024-01-11T21:15:55.245Z,20.38
2024-01-11T21:18:23.767Z,19.77
2024-01-11T21:20:52.382Z,20.77
2024-01-11T21:23:21.145Z,20.23
2024-01-11T21:25:51.448Z,20.38
2024-01-11T21:28:19.918Z,21.95
2024-01-11T21:30:48.517Z,18.65
2024-01-11T21:33:17.540Z,19.77
2024-01-11T21:35:46.453Z,19.42
2024-01-11T21:38:15.586Z,20.23
2024-01-11T21:40:44.188Z,17.52
2024-01-11T21:43:14.023Z,19.58
2024-01-11T21:45:42.509Z,19.73
2024-01-11T21:48:11.020Z,19.73
2024-01-11T21:50:39.621Z,18.38
2024-01-11T21:53:08.416Z,18.10
2024-01-11T21:55:39.633Z,17.67
2024-01-11T21:58:08.058Z,19.30
2024-01-11T22:00:37.892Z,17.90
2024-01-11T22:03:06.802Z,17.50
2024-01-11T22:05:37.330Z,18.33
2024-01-11T22:08:06.043Z,17.45
2024-01-11T22:10:34.676Z,18.63
2024-01-11T22:13:03.945Z,16.83
2024-01-11T22:15:32.458Z,17.88
2024-01-11T22:18:03.357Z,17.60
2024-01-11T22:20:32.113Z,17.52
2024-01-11T22:23:01.133Z,16.80
2024-01-11T22:25:29.790Z,16.52
2024-01-11T22:27:58.438Z,17.35
2024-01-11T22:30:27.484Z,17.60
2024-01-11T22:32:56.154Z,18.02
2024-01-11T22:35:26.185Z,16.98
2024-01-11T22:37:54.809Z,16.25
2024-01-11T22:40:23.368Z,16.73
2024-01-11T22:42:51.819Z,17.88
2024-01-11T22:45:20.589Z,16.65
2024-01-11T22:47:49.429Z,17.77
2024-01-11T22:50:17.955Z,17.65
2024-01-11T22:52:47.868Z,16.67
2024-01-11T22:55:16.359Z,16.23
2024-01-11T22:57:44.981Z,16.40
2024-01-11T23:00:22.829Z,16.17
2024-01-11T23:02:52.185Z,16.45
2024-01-11T23:05:21.686Z,15.70
2024-01-11T23:07:51.714Z,15.57
2024-01-11T23:10:21.547Z,16.58
2024-01-11T23:12:50.120Z,15.40
2024-01-11T23:15:18.689Z,15.90
2024-01-11T23:17:47.575Z,16.23
2024-01-11T23:20:16.693Z,15.90
2024-01-11T23:22:45.445Z,15.57
2024-01-11T23:25:15.381Z,14.98
2024-01-11T23:27:43.896Z,16.02
2024-01-11T23:30:12.839Z,15.57
2024-01-11T23:32:42.086Z,15.13
2024-01-11T23:35:10.693Z,15.48
2024-01-11T23:37:40.101Z,15.35
2024-01-11T23:40:09.602Z,14.50
2024-01-11T23:42:39.363Z,14.75
2024-01-11T23:45:08.195Z,14.73
2024-01-11T23:47:37.108Z,15.27
2024-01-11T23:50:07.223Z,15.35
2024-01-11T23:52:35.822Z,14.10
2024-01-11T23:55:04.261Z,15.07
2024-01-11T23:57:32.958Z,14.65
